createdAt,value
2017-12-28T00:04:13.707Z,4.90
2017-12-28T00:09:14.985Z,5.80
2017-12-28T00:14:16.986Z,6.27
2017-12-28T00:19:18.222Z,6.03
2017-12-28T00:24:19.426Z,6.87
2017-12-28T00:29:20.616Z,7.20
2017-12-28T00:34:21.915Z,8.70
2017-12-28T00:39:23.903Z,9.70
2017-12-28T00:44:25.097Z,10.90
2017-12-28T00:49:27.076Z,11.50
2017-12-28T00:54:28.272Z,11.97
2017-12-28T00:59:29.873Z,13.30
2017-12-28T01:04:31.242Z,11.17
2017-12-28T01:09:32.443Z,5.17
2017-12-28T01:14:33.632Z,3.17
2017-12-28T01:19:34.820Z,3.13
2017-12-28T01:24:36.026Z,2.43
2017-12-28T01:29:37.974Z,2.33
2017-12-28T01:34:39.172Z,2.10
2017-12-28T01:39:40.429Z,2.23
2017-12-28T01:44:41.612Z,2.23
2017-12-28T01:49:42.845Z,2.23
2017-12-28T01:54:44.065Z,1.97
2017-12-28T01:59:45.473Z,2.10
2017-12-28T02:04:46.689Z,2.00
2017-12-28T02:09:47.942Z,2.13
2017-12-28T02:14:49.172Z,1.87
2017-12-28T02:19:50.435Z,1.83
2017-12-28T02:24:51.662Z,1.90
2017-12-28T02:29:52.858Z,1.93
2017-12-28T02:34:54.058Z,1.83
2017-12-28T02:39:56.063Z,2.10
2017-12-28T02:44:57.240Z,1.60
2017-12-28T02:49:58.430Z,2.00
2017-12-28T02:54:59.644Z,1.70
2017-12-28T03:00:00.876Z,2.03
2017-12-28T03:05:02.108Z,1.40
2017-12-28T03:10:04.039Z,1.23
2017-12-28T03:15:05.256Z,1.33
2017-12-28T03:20:06.684Z,1.13
2017-12-28T03:25:08.617Z,0.80
2017-12-28T03:30:09.852Z,1.00
2017-12-28T03:35:11.072Z,0.70
2017-12-28T03:40:12.294Z,0.90
2017-12-28T03:45:13.521Z,0.73
2017-12-28T03:50:14.703Z,1.20
2017-12-28T03:55:15.906Z,1.00
2017-12-28T04:00:17.868Z,0.80
2017-12-28T04:05:19.052Z,1.07
2017-12-28T04:10:20.296Z,0.93
2017-12-28T04:15:21.497Z,0.90
2017-12-28T04:20:22.698Z,1.00
2017-12-28T04:25:23.900Z,1.30
2017-12-28T04:30:25.108Z,1.00
2017-12-28T04:35:26.298Z,1.13
2017-12-28T04:40:27.528Z,1.37
2017-12-28T04:45:28.727Z,0.90
2017-12-28T04:50:29.909Z,1.40
2017-12-28T04:55:31.128Z,1.50
2017-12-28T05:00:32.313Z,0.93
2017-12-28T05:05:33.500Z,1.67
2017-12-28T05:10:34.683Z,1.13
2017-12-28T05:15:35.860Z,1.03
2017-12-28T05:20:37.029Z,1.40
2017-12-28T05:25:38.200Z,1.47
2017-12-28T05:30:39.429Z,1.10
2017-12-28T05:35:40.629Z,1.50
2017-12-28T05:40:41.841Z,1.77
2017-12-28T05:45:43.788Z,1.13
2017-12-28T05:50:44.989Z,1.77
2017-12-28T05:55:46.181Z,1.07
2017-12-28T06:00:47.430Z,2.40
2017-12-28T06:05:48.670Z,1.93
2017-12-28T06:10:49.869Z,1.47
2017-12-28T06:15:51.798Z,1.57
2017-12-28T06:20:53.016Z,2.40
2017-12-28T06:25:54.213Z,1.93
2017-12-28T06:30:55.394Z,1.63
2017-12-28T06:35:56.572Z,1.47
2017-12-28T06:40:57.789Z,1.70
2017-12-28T06:45:58.980Z,1.53
2017-12-28T06:51:00.180Z,2.43
2017-12-28T06:56:02.140Z,1.90
2017-12-28T07:01:03.390Z,1.23
2017-12-28T07:06:04.604Z,1.30
2017-12-28T07:11:05.795Z,2.07
2017-12-28T07:16:07.002Z,1.67
2017-12-28T07:21:08.190Z,1.33
2017-12-28T07:26:09.397Z,1.50
2017-12-28T07:31:11.327Z,1.30
2017-12-28T07:36:12.528Z,1.53
2017-12-28T07:41:13.756Z,1.83
2017-12-28T07:46:15.429Z,1.87
2017-12-28T07:51:17.526Z,1.73
2017-12-28T07:56:19.524Z,1.47
2017-12-28T08:01:20.736Z,1.53
2017-12-28T08:06:21.913Z,1.50
2017-12-28T08:11:23.672Z,2.13
2017-12-28T08:16:25.600Z,1.67
2017-12-28T08:21:26.808Z,1.67
2017-12-28T08:26:28.006Z,1.70
2017-12-28T08:31:29.220Z,1.87
2017-12-28T08:36:31.172Z,1.70
2017-12-28T08:41:32.412Z,1.90
2017-12-28T08:46:34.358Z,2.37
2017-12-28T08:51:35.606Z,1.60
2017-12-28T08:56:37.532Z,1.77
2017-12-28T09:01:38.749Z,2.10
2017-12-28T09:06:39.948Z,1.87
2017-12-28T09:11:41.139Z,1.30
2017-12-28T09:16:42.331Z,1.67
2017-12-28T09:21:43.532Z,1.63
2017-12-28T09:26:45.509Z,2.40
2017-12-28T09:31:46.720Z,1.73
2017-12-28T09:36:47.936Z,1.60
2017-12-28T09:41:50.120Z,2.50
2017-12-28T09:46:53.266Z,2.30
2017-12-28T09:51:57.371Z,1.77
2017-12-28T09:56:58.666Z,2.30
2017-12-28T10:01:59.852Z,1.90
2017-12-28T10:07:01.077Z,1.60
2017-12-28T10:12:03.017Z,1.87
2017-12-28T10:17:04.216Z,1.90
2017-12-28T10:22:05.401Z,2.43
2017-12-28T10:27:06.612Z,2.60
2017-12-28T10:32:07.812Z,2.33
2017-12-28T10:37:08.991Z,2.73
2017-12-28T10:42:10.213Z,2.30
2017-12-28T10:47:11.372Z,2.00
2017-12-28T10:52:12.568Z,2.00
2017-12-28T10:57:13.765Z,2.23
2017-12-28T11:02:15.686Z,2.10
2017-12-28T11:07:16.878Z,1.80
2017-12-28T11:12:18.071Z,2.07
2017-12-28T11:17:19.262Z,3.20
2017-12-28T11:22:20.965Z,2.30
2017-12-28T11:27:22.993Z,2.03
2017-12-28T11:32:24.920Z,2.13
2017-12-28T11:37:26.832Z,2.80
2017-12-28T11:42:28.080Z,2.27
2017-12-28T11:47:32.161Z,2.13
2017-12-28T11:52:34.165Z,2.60
2017-12-28T11:57:37.114Z,1.70
2017-12-28T12:02:40.430Z,1.63
2017-12-28T12:07:41.648Z,2.83
2017-12-28T12:12:42.842Z,2.50
2017-12-28T12:17:44.160Z,1.80
2017-12-28T12:22:45.391Z,2.20
2017-12-28T12:27:47.326Z,3.60
2017-12-28T12:32:48.604Z,2.10
2017-12-28T12:37:49.817Z,1.90
2017-12-28T12:42:51.030Z,2.00
2017-12-28T12:47:52.737Z,2.07
2017-12-28T12:52:53.940Z,2.03
2017-12-28T12:57:56.086Z,1.33
2017-12-28T13:02:57.296Z,1.70
2017-12-28T13:07:58.771Z,2.33
2017-12-28T13:12:59.940Z,2.23
2017-12-28T13:18:01.156Z,1.83
2017-12-28T13:23:02.342Z,1.73
2017-12-28T13:28:03.536Z,1.80
2017-12-28T13:33:04.757Z,2.27
2017-12-28T13:38:06.755Z,1.70
2017-12-28T13:43:07.984Z,1.40
2017-12-28T13:48:09.229Z,1.67
2017-12-28T13:53:11.237Z,1.70
2017-12-28T13:58:13.173Z,2.00
2017-12-28T14:03:14.349Z,1.50
2017-12-28T14:08:15.546Z,2.13
2017-12-28T14:13:16.749Z,1.90
2017-12-28T14:18:17.997Z,2.53
2017-12-28T14:23:19.937Z,2.10
2017-12-28T14:28:21.128Z,1.60
2017-12-28T14:33:22.348Z,3.40
2017-12-28T14:38:23.552Z,2.30
2017-12-28T14:43:24.780Z,2.07
2017-12-28T14:48:25.981Z,1.90
2017-12-28T14:53:27.164Z,2.13
2017-12-28T14:58:28.366Z,2.20
2017-12-28T15:03:29.615Z,2.50
2017-12-28T15:08:30.819Z,1.87
2017-12-28T15:13:32.059Z,2.83
2017-12-28T15:18:33.216Z,2.60
2017-12-28T15:23:34.441Z,2.43
2017-12-28T15:28:35.656Z,2.30
2017-12-28T15:33:36.841Z,2.37
2017-12-28T15:38:38.037Z,2.13
2017-12-28T15:43:39.236Z,2.20
2017-12-28T15:48:40.454Z,2.13
2017-12-28T15:53:41.704Z,1.70
2017-12-28T15:58:42.937Z,2.50
2017-12-28T16:03:44.912Z,2.97
2017-12-28T16:08:46.130Z,2.70
2017-12-28T16:13:48.077Z,3.00
2017-12-28T16:18:49.360Z,2.63
2017-12-28T16:23:50.541Z,3.33
2017-12-28T16:28:51.730Z,2.80
2017-12-28T16:33:52.968Z,2.77
2017-12-28T16:38:54.917Z,2.50
2017-12-28T16:43:56.143Z,2.77
2017-12-28T16:48:57.364Z,3.37
2017-12-28T16:53:58.576Z,3.20
2017-12-28T16:58:59.762Z,3.53
2017-12-28T17:04:00.999Z,3.83
2017-12-28T17:09:02.956Z,3.90
2017-12-28T17:14:04.203Z,4.27
2017-12-28T17:19:06.153Z,4.23
2017-12-28T17:24:07.359Z,5.00
2017-12-28T17:29:08.549Z,4.57
2017-12-28T17:34:10.324Z,4.73
2017-12-28T17:39:11.551Z,4.90
2017-12-28T17:44:12.744Z,5.10
2017-12-28T17:49:14.703Z,4.10
2017-12-28T17:54:15.929Z,4.07
2017-12-28T17:59:17.297Z,4.23
2017-12-28T18:04:18.482Z,3.63
2017-12-28T18:09:19.752Z,4.37
2017-12-28T18:14:21.005Z,4.43
2017-12-28T18:19:22.198Z,3.40
2017-12-28T18:24:23.396Z,3.90
2017-12-28T18:29:24.637Z,4.30
2017-12-28T18:34:26.719Z,4.10
2017-12-28T18:51:11.874Z,4.10
2017-12-28T18:56:17.318Z,3.50
2017-12-28T19:01:19.408Z,3.23
2017-12-28T19:06:23.145Z,3.83
2017-12-28T19:11:24.846Z,3.73
2017-12-28T19:16:26.515Z,3.57
2017-12-28T19:21:28.455Z,3.20
2017-12-28T19:26:30.322Z,3.13
2017-12-28T19:31:31.896Z,3.00
2017-12-28T19:36:33.267Z,3.30
2017-12-28T19:41:34.819Z,3.07
2017-12-28T19:46:36.138Z,3.03
2017-12-28T19:51:37.471Z,3.40
2017-12-28T19:56:39.551Z,3.67
2017-12-28T20:01:40.879Z,2.90
2017-12-28T20:06:42.934Z,3.57
2017-12-28T20:11:44.242Z,4.23
2017-12-28T20:16:45.555Z,3.70
2017-12-28T20:21:46.901Z,3.63
2017-12-28T20:26:48.248Z,3.70
2017-12-28T20:31:50.315Z,3.70
2017-12-28T20:36:51.656Z,3.90
2017-12-28T20:41:53.863Z,3.83
2017-12-28T20:46:57.088Z,4.10
2017-12-28T20:51:59.615Z,3.93
2017-12-28T20:57:01.395Z,3.97
2017-12-28T21:02:03.555Z,4.20
2017-12-28T21:07:05.181Z,5.00
2017-12-28T21:12:07.232Z,5.33
2017-12-28T21:17:08.646Z,5.47
2017-12-28T21:22:09.974Z,5.00
2017-12-28T21:27:11.307Z,7.77
2017-12-28T21:32:13.427Z,5.60
2017-12-28T21:37:15.483Z,5.30
2017-12-28T21:42:16.842Z,5.77
2017-12-28T21:47:18.390Z,5.80
2017-12-28T21:52:19.744Z,6.70
2017-12-28T21:57:21.113Z,5.97
2017-12-28T22:02:22.495Z,5.77
2017-12-28T22:07:25.449Z,5.77
2017-12-28T22:12:28.053Z,6.00
2017-12-28T22:17:29.750Z,6.10
2017-12-28T22:22:31.611Z,5.70
2017-12-28T22:27:33.254Z,6.10
2017-12-28T22:32:34.592Z,6.73
2017-12-28T22:37:36.031Z,6.70
2017-12-28T22:42:37.363Z,6.40
2017-12-28T22:47:38.721Z,6.77
2017-12-28T22:52:40.047Z,7.30
2017-12-28T22:57:41.406Z,7.40
2017-12-28T23:02:42.751Z,7.00
2017-12-28T23:07:44.933Z,7.30
2017-12-28T23:12:46.272Z,7.37
2017-12-28T23:17:48.344Z,7.87
2017-12-28T23:22:49.839Z,7.70
2017-12-28T23:27:51.186Z,7.07
2017-12-28T23:32:52.499Z,7.27
2017-12-28T23:37:54.511Z,6.33
2017-12-28T23:42:56.737Z,7.90
2017-12-28T23:47:58.842Z,6.60
2017-12-28T23:53:00.463Z,6.67
2017-12-28T23:58:03.184Z,7.40
